createdAt,value
2022-10-10T00:01:29.113Z,7.12
2022-10-10T00:04:35.291Z,7.09
2022-10-10T00:07:37.705Z,7.14
2022-10-10T00:10:42.410Z,7.19
2022-10-10T00:13:45.465Z,7.24
2022-10-10T00:16:48.094Z,7.15
2022-10-10T00:19:50.511Z,7.36
2022-10-10T00:22:53.539Z,7.29
2022-10-10T00:25:56.597Z,7.21
2022-10-10T00:28:59.228Z,7.12
2022-10-10T00:32:01.808Z,7.24
2022-10-10T00:35:07.154Z,7.21
2022-10-10T00:38:14.322Z,7.10
2022-10-10T00:41:18.211Z,7.14
2022-10-10T00:44:20.830Z,7.23
2022-10-10T00:47:23.397Z,7.14
2022-10-10T00:50:29.157Z,7.13
2022-10-10T00:53:37.302Z,7.11
2022-10-10T00:56:52.214Z,7.10
2022-10-10T00:59:54.637Z,7.14
2022-10-10T01:02:57.218Z,7.11
2022-10-10T01:05:59.784Z,7.14
2022-10-10T01:09:05.538Z,7.22
2022-10-10T01:12:19.116Z,7.13
2022-10-10T01:15:29.660Z,7.09
2022-10-10T01:18:57.208Z,7.03
2022-10-10T01:22:12.763Z,6.91
2022-10-10T01:26:11.765Z,6.84
2022-10-10T01:29:20.136Z,6.88
2022-10-10T01:32:53.907Z,6.84
2022-10-10T01:36:01.341Z,6.88
2022-10-10T01:39:19.485Z,6.82
2022-10-10T01:42:31.573Z,6.84
2022-10-10T01:45:35.150Z,6.87
2022-10-10T01:48:38.638Z,6.82
2022-10-10T01:51:44.386Z,6.83
2022-10-10T01:54:53.650Z,6.78
2022-10-10T01:57:59.031Z,6.79
2022-10-10T02:01:07.951Z,6.70
2022-10-10T02:04:35.277Z,6.72
2022-10-10T02:07:45.786Z,6.78
2022-10-10T02:10:55.331Z,6.88
2022-10-10T02:14:03.491Z,6.90
2022-10-10T02:17:08.909Z,6.89
2022-10-10T02:20:12.532Z,6.88
2022-10-10T02:23:24.827Z,6.80
2022-10-10T02:26:29.101Z,6.66
2022-10-10T02:29:37.407Z,6.65
2022-10-10T02:32:47.606Z,6.61
2022-10-10T02:35:56.591Z,6.66
2022-10-10T02:39:04.829Z,6.61
2022-10-10T02:42:11.078Z,6.56
2022-10-10T02:45:13.836Z,6.63
2022-10-10T02:48:17.624Z,6.62
2022-10-10T02:51:20.208Z,6.61
2022-10-10T02:54:22.746Z,6.49
2022-10-10T02:57:25.336Z,6.46
2022-10-10T03:00:27.796Z,6.43
2022-10-10T03:03:30.441Z,6.42
2022-10-10T03:06:33.015Z,6.41
2022-10-10T03:09:35.834Z,6.44
2022-10-10T03:12:38.341Z,6.52
2022-10-10T03:15:40.923Z,6.61
2022-10-10T03:18:43.416Z,6.66
2022-10-10T03:21:48.865Z,6.68
2022-10-10T03:24:51.508Z,6.73
2022-10-10T03:27:54.084Z,6.56
2022-10-10T03:30:56.878Z,6.47
2022-10-10T03:33:59.941Z,6.45
2022-10-10T03:37:02.809Z,6.33
2022-10-10T03:40:10.966Z,6.40
2022-10-10T03:43:15.285Z,6.30
2022-10-10T03:46:17.889Z,6.30
2022-10-10T03:49:24.641Z,6.36
2022-10-10T03:52:30.603Z,6.35
2022-10-10T03:55:33.363Z,6.32
2022-10-10T03:58:35.946Z,6.22
2022-10-10T04:01:41.467Z,6.19
2022-10-10T04:04:44.098Z,6.22
2022-10-10T04:07:47.221Z,6.22
2022-10-10T04:10:53.191Z,6.24
2022-10-10T04:13:56.055Z,6.25
2022-10-10T04:17:02.275Z,6.27
2022-10-10T04:20:07.147Z,6.23
2022-10-10T04:23:09.863Z,6.23
2022-10-10T04:26:12.630Z,6.16
2022-10-10T04:29:15.110Z,6.19
2022-10-10T04:32:18.026Z,6.11
2022-10-10T04:35:20.554Z,6.07
2022-10-10T04:38:24.371Z,6.04
2022-10-10T04:41:29.673Z,6.02
2022-10-10T04:44:33.153Z,5.99
2022-10-10T04:47:36.218Z,5.98
2022-10-10T04:50:39.716Z,6.00
2022-10-10T04:53:50.063Z,6.06
2022-10-10T04:56:58.670Z,6.09
2022-10-10T05:00:07.026Z,6.12
2022-10-10T05:03:15.993Z,6.10
2022-10-10T05:06:21.846Z,6.12
2022-10-10T05:09:25.070Z,6.17
2022-10-10T05:12:28.074Z,6.25
2022-10-10T05:15:31.725Z,6.32
2022-10-10T05:18:40.297Z,6.37
2022-10-10T05:21:43.379Z,6.42
2022-10-10T05:24:46.398Z,6.41
2022-10-10T05:27:49.450Z,6.46
2022-10-10T05:30:52.501Z,6.60
2022-10-10T05:33:58.938Z,6.67
2022-10-10T05:37:02.399Z,6.72
2022-10-10T05:40:05.975Z,6.80
2022-10-10T05:43:08.876Z,6.96
2022-10-10T05:46:12.113Z,7.17
2022-10-10T05:49:15.279Z,7.35
2022-10-10T05:52:18.468Z,7.48
2022-10-10T05:55:21.117Z,7.68
2022-10-10T05:58:24.835Z,7.93
2022-10-10T06:01:32.850Z,8.12
2022-10-10T06:04:38.307Z,8.38
2022-10-10T06:08:03.597Z,8.57
2022-10-10T06:11:08.626Z,8.84
2022-10-10T06:14:11.590Z,9.04
2022-10-10T06:17:17.363Z,9.29
2022-10-10T06:20:23.310Z,9.38
2022-10-10T06:23:29.161Z,9.50
2022-10-10T06:26:34.709Z,9.71
2022-10-10T06:29:38.146Z,9.82
2022-10-10T06:32:43.771Z,9.94
2022-10-10T06:35:48.894Z,10.07
2022-10-10T06:38:51.744Z,10.16
2022-10-10T06:41:54.795Z,10.20
2022-10-10T06:45:05.909Z,10.40
2022-10-10T06:48:13.633Z,10.62
2022-10-10T06:51:17.423Z,10.50
2022-10-10T06:54:20.023Z,10.53
2022-10-10T06:57:23.485Z,10.55
2022-10-10T07:00:26.491Z,10.44
2022-10-10T07:03:30.509Z,10.45
2022-10-10T07:06:34.942Z,10.72
2022-10-10T07:09:40.933Z,10.73
2022-10-10T07:12:44.936Z,11.00
2022-10-10T07:15:51.353Z,11.33
2022-10-10T07:18:56.688Z,11.47
2022-10-10T07:21:59.296Z,11.18
2022-10-10T07:25:02.692Z,11.44
2022-10-10T07:28:10.298Z,11.46
2022-10-10T07:31:13.016Z,11.66
2022-10-10T07:34:15.556Z,11.79
2022-10-10T07:37:19.119Z,11.83
2022-10-10T07:40:21.837Z,12.20
2022-10-10T07:43:27.331Z,12.27
2022-10-10T07:46:33.075Z,12.49
2022-10-10T07:49:36.518Z,12.58
2022-10-10T07:52:43.253Z,12.60
2022-10-10T07:55:46.864Z,12.60
2022-10-10T07:58:49.794Z,12.80
2022-10-10T08:01:56.443Z,13.07
2022-10-10T08:04:59.009Z,13.02
2022-10-10T08:08:02.230Z,12.95
2022-10-10T08:11:06.327Z,13.13
2022-10-10T08:14:12.531Z,13.26
2022-10-10T08:17:15.243Z,13.56
2022-10-10T08:20:18.821Z,13.50
2022-10-10T08:23:23.795Z,13.46
2022-10-10T08:26:27.957Z,13.73
2022-10-10T08:29:30.803Z,13.44
2022-10-10T08:32:34.616Z,13.71
2022-10-10T08:35:42.776Z,13.80
2022-10-10T08:38:48.609Z,14.05
2022-10-10T08:41:54.835Z,14.01
2022-10-10T08:45:02.906Z,14.17
2022-10-10T08:48:13.251Z,14.24
2022-10-10T08:51:33.352Z,14.22
2022-10-10T08:54:40.713Z,14.53
2022-10-10T08:58:10.868Z,14.44
2022-10-10T09:01:23.858Z,14.60
2022-10-10T09:04:33.357Z,14.60
2022-10-10T09:08:07.734Z,14.61
2022-10-10T09:11:36.209Z,14.73
2022-10-10T09:15:02.718Z,14.69
2022-10-10T09:18:30.578Z,14.73
2022-10-10T09:21:38.710Z,14.87
2022-10-10T09:24:46.631Z,15.14
2022-10-10T09:28:05.259Z,15.19
2022-10-10T09:31:35.037Z,15.22
2022-10-10T09:34:50.246Z,15.39
2022-10-10T09:38:13.775Z,15.22
2022-10-10T09:41:32.495Z,15.53
2022-10-10T09:44:36.089Z,15.77
2022-10-10T09:47:42.042Z,16.11
2022-10-10T09:50:44.897Z,16.18
2022-10-10T09:53:49.719Z,16.18
2022-10-10T09:56:57.519Z,16.07
2022-10-10T10:00:04.490Z,15.93
2022-10-10T10:03:22.999Z,16.10
2022-10-10T10:06:26.802Z,15.99
2022-10-10T10:09:30.190Z,15.87
2022-10-10T10:12:42.985Z,16.08
2022-10-10T10:15:59.379Z,16.48
2022-10-10T10:19:03.098Z,16.55
2022-10-10T10:22:07.176Z,16.91
2022-10-10T10:25:33.568Z,17.10
2022-10-10T10:28:42.915Z,17.37
2022-10-10T10:32:46.578Z,17.22
2022-10-10T10:36:01.580Z,17.42
2022-10-10T10:39:26.126Z,17.47
2022-10-10T10:42:50.655Z,17.54
2022-10-10T10:45:56.563Z,17.61
2022-10-10T10:49:42.292Z,17.64
2022-10-10T10:53:05.643Z,17.96
2022-10-10T10:56:34.378Z,17.99
2022-10-10T11:00:17.089Z,18.11
2022-10-10T11:05:17.530Z,18.22
2022-10-10T11:07:20.304Z,18.40
2022-10-10T11:10:45.842Z,18.15
2022-10-10T11:14:07.618Z,18.08
2022-10-10T11:17:40.295Z,17.88
2022-10-10T11:20:47.433Z,17.95
2022-10-10T11:23:55.999Z,18.07
2022-10-10T11:27:03.300Z,17.95
2022-10-10T11:30:19.735Z,18.35
2022-10-10T11:33:30.917Z,18.79
2022-10-10T11:36:40.370Z,18.89
2022-10-10T11:39:55.545Z,18.77
2022-10-10T11:43:22.970Z,19.04
2022-10-10T11:46:41.334Z,19.41
2022-10-10T11:49:53.743Z,19.35
2022-10-10T11:53:20.704Z,18.91
2022-10-10T11:56:36.550Z,18.62
2022-10-10T11:59:49.063Z,18.71
2022-10-10T12:02:58.750Z,18.76
2022-10-10T12:06:19.804Z,18.82
2022-10-10T12:09:34.400Z,18.44
2022-10-10T12:12:46.047Z,18.53
2022-10-10T12:15:52.654Z,18.25
2022-10-10T12:19:08.134Z,18.39
2022-10-10T12:22:23.779Z,18.37
2022-10-10T12:25:42.532Z,18.32
2022-10-10T12:29:02.082Z,18.29
2022-10-10T12:32:37.476Z,18.11
2022-10-10T12:35:44.068Z,17.99
2022-10-10T12:39:11.540Z,17.80
2022-10-10T12:42:41.414Z,18.05
2022-10-10T12:45:59.948Z,18.30
2022-10-10T12:49:14.534Z,18.16
2022-10-10T12:52:36.405Z,17.88
2022-10-10T12:55:45.779Z,17.78
2022-10-10T12:58:49.278Z,17.95
2022-10-10T13:02:05.342Z,18.26
2022-10-10T13:05:08.856Z,18.75
2022-10-10T13:08:18.055Z,18.47
2022-10-10T13:11:22.678Z,18.24
2022-10-10T13:14:28.566Z,17.84
2022-10-10T13:17:39.400Z,17.97
2022-10-10T13:20:45.341Z,18.19
2022-10-10T13:32:18.090Z,18.27
2022-10-10T13:35:29.036Z,18.20
2022-10-10T13:38:32.089Z,18.16
2022-10-10T13:41:35.155Z,18.27
2022-10-10T13:44:51.275Z,18.36
2022-10-10T13:48:17.614Z,18.17
2022-10-10T13:51:45.292Z,18.15
2022-10-10T13:54:49.208Z,18.17
2022-10-10T13:57:59.484Z,18.07
2022-10-10T14:01:05.433Z,18.05
2022-10-10T14:04:16.183Z,18.10
2022-10-10T14:07:29.850Z,17.95
2022-10-10T14:10:36.552Z,17.84
2022-10-10T14:13:39.428Z,17.99
2022-10-10T14:16:42.505Z,17.99
2022-10-10T14:19:47.800Z,18.09
2022-10-10T14:22:51.494Z,18.11
2022-10-10T14:25:55.003Z,17.91
2022-10-10T14:28:59.611Z,17.95
2022-10-10T14:32:02.559Z,17.88
2022-10-10T14:35:08.784Z,17.82
2022-10-10T14:38:16.536Z,17.86
2022-10-10T14:41:20.703Z,17.94
2022-10-10T14:44:23.774Z,17.83
2022-10-10T14:47:26.993Z,17.72
2022-10-10T14:50:35.630Z,17.62
2022-10-10T14:53:39.374Z,17.63
2022-10-10T14:57:07.437Z,17.50
2022-10-10T15:00:08.364Z,17.33
2022-10-10T15:03:11.717Z,17.16
2022-10-10T15:06:14.975Z,17.09
2022-10-10T15:09:39.956Z,17.07
2022-10-10T15:12:45.469Z,16.95
2022-10-10T15:15:48.551Z,16.88
2022-10-10T15:18:54.503Z,16.70
2022-10-10T15:21:58.095Z,16.62
2022-10-10T15:25:01.277Z,16.37
2022-10-10T15:28:04.495Z,16.15
2022-10-10T15:31:08.490Z,16.12
2022-10-10T15:34:11.823Z,15.96
2022-10-10T15:37:17.766Z,16.07
2022-10-10T15:40:24.229Z,16.12
2022-10-10T15:43:28.916Z,15.82
2022-10-10T15:46:42.083Z,15.88
2022-10-10T15:49:45.594Z,15.80
2022-10-10T15:52:55.896Z,15.67
2022-10-10T15:56:09.183Z,15.55
2022-10-10T15:59:14.649Z,15.39
2022-10-10T16:02:18.168Z,15.31
2022-10-10T16:05:21.469Z,15.17
2022-10-10T16:08:24.625Z,14.99
2022-10-10T16:11:27.969Z,14.84
2022-10-10T16:14:31.616Z,14.58
2022-10-10T16:17:37.834Z,14.38
2022-10-10T16:20:40.502Z,14.26
2022-10-10T16:23:47.576Z,14.22
2022-10-10T16:26:53.637Z,14.05
2022-10-10T16:29:57.110Z,13.93
2022-10-10T16:33:03.972Z,13.75
2022-10-10T16:36:10.379Z,13.67
2022-10-10T16:39:13.802Z,13.63
2022-10-10T16:42:16.900Z,13.58
2022-10-10T16:45:20.377Z,13.43
2022-10-10T16:48:23.419Z,13.35
2022-10-10T16:51:28.985Z,13.37
2022-10-10T16:54:32.072Z,13.34
2022-10-10T16:57:36.987Z,13.29
2022-10-10T17:00:46.115Z,13.21
2022-10-10T17:03:51.737Z,13.16
2022-10-10T17:06:55.265Z,13.09
2022-10-10T17:09:58.494Z,13.05
2022-10-10T17:13:01.614Z,13.02
2022-10-10T17:16:40.416Z,12.97
2022-10-10T17:19:31.836Z,12.69
2022-10-10T17:22:35.503Z,12.70
2022-10-10T17:25:45.657Z,12.79
2022-10-10T17:28:56.954Z,12.69
2022-10-10T17:32:06.606Z,12.82
2022-10-10T17:35:11.144Z,12.92
2022-10-10T17:38:38.579Z,13.01
2022-10-10T17:41:44.319Z,12.96
2022-10-10T17:44:52.506Z,12.96
2022-10-10T17:48:02.344Z,13.03
2022-10-10T17:51:11.791Z,12.97
2022-10-10T17:54:24.706Z,12.92
2022-10-10T17:57:29.864Z,12.61
2022-10-10T18:00:38.231Z,12.59
2022-10-10T18:03:43.273Z,12.55
2022-10-10T18:06:48.597Z,12.47
2022-10-10T18:09:53.773Z,12.56
2022-10-10T18:12:57.599Z,12.51
2022-10-10T18:16:13.173Z,12.30
2022-10-10T18:19:20.104Z,12.14
2022-10-10T18:22:29.980Z,12.06
2022-10-10T18:25:34.954Z,11.97
2022-10-10T18:28:43.200Z,12.10
2022-10-10T18:31:47.245Z,12.07
2022-10-10T18:34:50.009Z,12.06
2022-10-10T18:37:57.098Z,11.99
2022-10-10T18:41:08.157Z,11.81
2022-10-10T18:44:18.101Z,11.65
2022-10-10T18:47:25.175Z,11.68
2022-10-10T18:50:29.356Z,11.69
2022-10-10T18:53:35.137Z,11.57
2022-10-10T18:56:43.199Z,11.51
2022-10-10T18:59:46.139Z,11.46
2022-10-10T19:02:52.070Z,11.35
2022-10-10T19:06:01.035Z,11.24
2022-10-10T19:09:07.087Z,11.04
2022-10-10T19:12:10.089Z,10.94
2022-10-10T19:15:13.280Z,10.91
2022-10-10T19:18:17.114Z,10.85
2022-10-10T19:21:21.107Z,10.84
2022-10-10T19:24:26.948Z,10.77
2022-10-10T19:27:32.829Z,10.71
2022-10-10T19:30:41.015Z,10.69
2022-10-10T19:33:45.311Z,10.58
2022-10-10T19:36:49.791Z,10.50
2022-10-10T19:39:52.705Z,10.40
2022-10-10T19:42:55.805Z,10.42
2022-10-10T19:45:59.484Z,10.42
2022-10-10T19:49:05.407Z,10.35
2022-10-10T19:52:14.347Z,10.31
2022-10-10T19:55:25.374Z,10.24
2022-10-10T19:58:32.322Z,10.34
2022-10-10T20:01:36.093Z,10.39
2022-10-10T20:04:40.413Z,10.41
2022-10-10T20:07:44.103Z,10.32
2022-10-10T20:10:49.957Z,10.25
2022-10-10T20:13:56.319Z,10.32
2022-10-10T20:16:59.575Z,10.29
2022-10-10T20:20:03.538Z,10.35
2022-10-10T20:23:07.148Z,10.25
2022-10-10T20:26:12.915Z,10.33
2022-10-10T20:29:15.993Z,10.38
2022-10-10T20:32:24.290Z,10.41
2022-10-10T20:35:30.198Z,10.34
2022-10-10T20:38:34.248Z,10.32
2022-10-10T20:41:39.061Z,10.28
2022-10-10T20:44:42.159Z,10.36
2022-10-10T20:47:45.473Z,10.35
2022-10-10T20:50:48.411Z,10.35
2022-10-10T20:53:59.952Z,10.36
2022-10-10T20:57:03.286Z,10.38
2022-10-10T21:00:07.354Z,10.47
2022-10-10T21:03:13.480Z,10.51
2022-10-10T21:06:26.297Z,10.50
2022-10-10T21:09:29.117Z,10.49
2022-10-10T21:12:32.478Z,10.57
2022-10-10T21:15:35.672Z,10.60
2022-10-10T21:18:38.323Z,10.60
2022-10-10T21:21:43.835Z,10.55
2022-10-10T21:24:49.424Z,10.48
2022-10-10T21:27:55.275Z,10.45
2022-10-10T21:30:58.550Z,10.49
2022-10-10T21:34:02.576Z,10.53
2022-10-10T21:37:10.795Z,10.61
2022-10-10T21:40:14.036Z,10.63
2022-10-10T21:43:20.112Z,10.69
2022-10-10T21:46:26.165Z,10.71
2022-10-10T21:49:29.188Z,10.72
2022-10-10T21:52:32.160Z,10.76
2022-10-10T21:55:40.800Z,10.81
2022-10-10T21:58:45.525Z,10.83
2022-10-10T22:01:51.211Z,10.88
2022-10-10T22:05:00.483Z,10.80
2022-10-10T22:08:07.166Z,10.80
2022-10-10T22:11:16.278Z,10.80
2022-10-10T22:14:18.899Z,10.82
2022-10-10T22:17:24.386Z,10.86
2022-10-10T22:20:27.014Z,10.87
2022-10-10T22:23:29.975Z,10.82
2022-10-10T22:26:34.332Z,10.77
2022-10-10T22:29:39.893Z,10.74
2022-10-10T22:32:42.469Z,10.78
2022-10-10T22:35:51.506Z,10.86
2022-10-10T22:38:54.165Z,10.85
2022-10-10T22:41:57.481Z,10.90
2022-10-10T22:45:00.171Z,10.94
2022-10-10T22:48:05.194Z,10.92
2022-10-10T22:51:21.869Z,10.92
2022-10-10T22:54:25.134Z,10.90
2022-10-10T22:57:30.036Z,10.99
2022-10-10T23:00:34.329Z,11.01
2022-10-10T23:03:37.057Z,11.06
2022-10-10T23:06:42.389Z,11.09
2022-10-10T23:09:45.225Z,11.09
2022-10-10T23:12:47.785Z,11.14
2022-10-10T23:15:56.261Z,11.10
2022-10-10T23:18:58.950Z,11.14
2022-10-10T23:22:08.070Z,11.16
2022-10-10T23:25:10.631Z,11.19
2022-10-10T23:28:20.493Z,11.20
2022-10-10T23:31:26.105Z,11.27
2022-10-10T23:34:31.893Z,11.28
2022-10-10T23:37:34.972Z,11.25
2022-10-10T23:40:37.749Z,11.30
2022-10-10T23:43:43.462Z,11.30
2022-10-10T23:46:46.177Z,11.31
2022-10-10T23:49:48.739Z,11.34
2022-10-10T23:52:51.425Z,11.37
2022-10-10T23:55:54.199Z,11.29
2022-10-10T23:58:56.824Z,11.24
